sensor_id;sensor_type;location;lat;lon;timestamp;pressure;altitude;pressure_sealevel;temperature;humidity
65019;BME280;66069;51.164;-114.452;2022-12-29T00:01:38;86545.97;;;17.03;40.17
65019;BME280;66069;51.164;-114.452;2022-12-29T00:04:05;86552.13;;;17.00;39.96
65019;BME280;66069;51.164;-114.452;2022-12-29T00:06:31;86551.81;;;16.98;39.97
65019;BME280;66069;51.164;-114.452;2022-12-29T00:08:58;86541.56;;;16.87;39.93
65019;BME280;66069;51.164;-114.452;2022-12-29T00:11:26;86559.13;;;16.94;39.94
65019;BME280;66069;51.164;-114.452;2022-12-29T00:13:53;86542.13;;;16.82;39.72
65019;BME280;66069;51.164;-114.452;2022-12-29T00:16:41;86563.81;;;16.90;39.77
65019;BME280;66069;51.164;-114.452;2022-12-29T00:19:09;86571.56;;;16.84;39.74
65019;BME280;66069;51.164;-114.452;2022-12-29T00:21:54;86569.03;;;16.81;39.99
65019;BME280;66069;51.164;-114.452;2022-12-29T00:24:38;86573.78;;;16.86;39.92
65019;BME280;66069;51.164;-114.452;2022-12-29T00:27:23;86578.78;;;16.84;39.96
65019;BME280;66069;51.164;-114.452;2022-12-29T00:30:13;86584.91;;;16.81;39.97
65019;BME280;66069;51.164;-114.452;2022-12-29T00:32:59;86577.69;;;16.68;40.12
65019;BME280;66069;51.164;-114.452;2022-12-29T00:35:52;86587.69;;;16.77;40.20
65019;BME280;66069;51.164;-114.452;2022-12-29T00:38:20;86583.22;;;16.74;40.31
65019;BME280;66069;51.164;-114.452;2022-12-29T00:41:06;86589.69;;;16.73;40.64
65019;BME280;66069;51.164;-114.452;2022-12-29T00:43:50;86589.75;;;16.69;40.68
65019;BME280;66069;51.164;-114.452;2022-12-29T00:46:36;86567.25;;;16.65;40.94
65019;BME280;66069;51.164;-114.452;2022-12-29T00:49:05;86553.59;;;16.54;41.04
65019;BME280;66069;51.164;-114.452;2022-12-29T00:51:50;86575.19;;;16.65;40.54
65019;BME280;66069;51.164;-114.452;2022-12-29T00:54:17;86574.84;;;16.63;40.21
65019;BME280;66069;51.164;-114.452;2022-12-29T00:56:48;86532.69;;;16.34;40.59
65019;BME280;66069;51.164;-114.452;2022-12-29T00:59:15;86573.91;;;16.57;40.27
65019;BME280;66069;51.164;-114.452;2022-12-29T01:01:42;86571.78;;;16.52;40.21
65019;BME280;66069;51.164;-114.452;2022-12-29T01:04:08;86593.28;;;16.54;40.02
65019;BME280;66069;51.164;-114.452;2022-12-29T01:06:37;86580.81;;;16.41;39.98
65019;BME280;66069;51.164;-114.452;2022-12-29T01:09:04;86580.50;;;16.39;40.16
65019;BME280;66069;51.164;-114.452;2022-12-29T01:11:48;86596.47;;;16.49;40.21
65019;BME280;66069;51.164;-114.452;2022-12-29T01:14:15;86581.13;;;16.31;39.94
65019;BME280;66069;51.164;-114.452;2022-12-29T01:16:42;86603.38;;;16.46;40.01
65019;BME280;66069;51.164;-114.452;2022-12-29T01:19:08;86604.19;;;16.43;40.35
65019;BME280;66069;51.164;-114.452;2022-12-29T01:21:34;86584.97;;;16.30;40.40
65019;BME280;66069;51.164;-114.452;2022-12-29T01:24:01;86604.28;;;16.39;40.39
65019;BME280;66069;51.164;-114.452;2022-12-29T01:26:27;86604.72;;;16.38;40.35
65019;BME280;66069;51.164;-114.452;2022-12-29T01:28:54;86604.84;;;16.34;40.33
65019;BME280;66069;51.164;-114.452;2022-12-29T01:31:20;86602.41;;;16.27;39.90
65019;BME280;66069;51.164;-114.452;2022-12-29T01:33:47;86588.34;;;16.18;40.38
65019;BME280;66069;51.164;-114.452;2022-12-29T01:36:15;86614.34;;;16.32;40.39
65019;BME280;66069;51.164;-114.452;2022-12-29T01:38:42;86599.34;;;16.16;40.16
65019;BME280;66069;51.164;-114.452;2022-12-29T01:41:11;86614.47;;;16.28;40.23
65019;BME280;66069;51.164;-114.452;2022-12-29T01:43:53;86620.16;;;16.27;39.97
65019;BME280;66069;51.164;-114.452;2022-12-29T01:51:50;86632.03;;;16.22;39.88
65019;BME280;66069;51.164;-114.452;2022-12-29T01:54:22;86643.78;;;16.21;40.32
65019;BME280;66069;51.164;-114.452;2022-12-29T01:56:52;86640.38;;;16.21;40.12
65019;BME280;66069;51.164;-114.452;2022-12-29T01:59:23;86636.25;;;16.20;39.87
65019;BME280;66069;51.164;-114.452;2022-12-29T02:01:51;86649.91;;;16.18;39.91
65019;BME280;66069;51.164;-114.452;2022-12-29T02:04:17;86651.81;;;16.18;40.07
65019;BME280;66069;51.164;-114.452;2022-12-29T02:06:49;86645.03;;;16.17;39.95
65019;BME280;66069;51.164;-114.452;2022-12-29T02:09:18;86659.44;;;16.15;40.10
65019;BME280;66069;51.164;-114.452;2022-12-29T02:11:45;86644.59;;;16.05;40.04
65019;BME280;66069;51.164;-114.452;2022-12-29T02:14:13;86654.53;;;16.14;40.17
65019;BME280;66069;51.164;-114.452;2022-12-29T02:22:48;86661.13;;;16.09;39.94
65019;BME280;66069;51.164;-114.452;2022-12-29T02:31:06;86663.84;;;16.06;40.02
65019;BME280;66069;51.164;-114.452;2022-12-29T02:36:54;86664.69;;;16.03;40.29
65019;BME280;66069;51.164;-114.452;2022-12-29T02:39:42;86614.63;;;15.70;40.19
65019;BME280;66069;51.164;-114.452;2022-12-29T02:42:55;86663.19;;;16.02;40.40
65019;BME280;66069;51.164;-114.452;2022-12-29T02:45:37;86662.88;;;16.00;40.19
65019;BME280;66069;51.164;-114.452;2022-12-29T02:48:24;86664.06;;;15.99;40.03
65019;BME280;66069;51.164;-114.452;2022-12-29T02:51:03;86663.31;;;15.98;40.13
65019;BME280;66069;51.164;-114.452;2022-12-29T02:53:33;86668.28;;;15.96;40.22
65019;BME280;66069;51.164;-114.452;2022-12-29T02:56:19;86653.34;;;15.89;40.23
65019;BME280;66069;51.164;-114.452;2022-12-29T02:58:46;86672.06;;;15.95;40.16
65019;BME280;66069;51.164;-114.452;2022-12-29T03:01:22;86673.22;;;15.94;40.38
65019;BME280;66069;51.164;-114.452;2022-12-29T03:03:57;86668.38;;;15.93;40.39
65019;BME280;66069;51.164;-114.452;2022-12-29T03:06:43;86666.91;;;15.92;40.15
65019;BME280;66069;51.164;-114.452;2022-12-29T03:12:30;86674.47;;;15.89;40.31
65019;BME280;66069;51.164;-114.452;2022-12-29T03:15:25;86679.47;;;15.87;40.37
65019;BME280;66069;51.164;-114.452;2022-12-29T03:18:19;86677.97;;;15.86;40.30
65019;BME280;66069;51.164;-114.452;2022-12-29T03:21:02;86679.16;;;15.85;40.44
65019;BME280;66069;51.164;-114.452;2022-12-29T03:23:32;86675.03;;;15.84;40.37
65019;BME280;66069;51.164;-114.452;2022-12-29T03:26:02;86669.09;;;15.80;40.31
65019;BME280;66069;51.164;-114.452;2022-12-29T03:28:35;86677.31;;;15.82;40.45
65019;BME280;66069;51.164;-114.452;2022-12-29T03:31:03;86675.84;;;15.81;40.56
65019;BME280;66069;51.164;-114.452;2022-12-29T03:33:31;86675.09;;;15.81;40.47
65019;BME280;66069;51.164;-114.452;2022-12-29T03:36:01;86653.72;;;15.63;40.58
65019;BME280;66069;51.164;-114.452;2022-12-29T03:41:04;86683.13;;;15.77;40.60
65019;BME280;66069;51.164;-114.452;2022-12-29T03:43:32;86661.22;;;15.64;40.42
65019;BME280;66069;51.164;-114.452;2022-12-29T03:45:59;86660.13;;;15.61;40.32
65019;BME280;66069;51.164;-114.452;2022-12-29T03:48:25;86683.97;;;15.74;40.50
65019;BME280;66069;51.164;-114.452;2022-12-29T03:50:52;86694.22;;;15.72;40.33
65019;BME280;66069;51.164;-114.452;2022-12-29T03:53:18;86698.34;;;15.73;40.68
65019;BME280;66069;51.164;-114.452;2022-12-29T03:55:45;86694.63;;;15.71;40.38
65019;BME280;66069;51.164;-114.452;2022-12-29T03:58:11;86698.00;;;15.71;40.52
65019;BME280;66069;51.164;-114.452;2022-12-29T04:00:37;86698.44;;;15.70;40.46
65019;BME280;66069;51.164;-114.452;2022-12-29T04:03:04;86697.38;;;15.67;40.65
65019;BME280;66069;51.164;-114.452;2022-12-29T04:05:30;86695.47;;;15.68;40.55
65019;BME280;66069;51.164;-114.452;2022-12-29T04:07:57;86695.56;;;15.64;40.44
65019;BME280;66069;51.164;-114.452;2022-12-29T04:10:23;86705.63;;;15.69;40.54
65019;BME280;66069;51.164;-114.452;2022-12-29T04:12:49;86696.53;;;15.70;40.83
65019;BME280;66069;51.164;-114.452;2022-12-29T04:15:16;86699.09;;;15.74;41.06
65019;BME280;66069;51.164;-114.452;2022-12-29T04:17:42;86693.50;;;15.72;41.58
65019;BME280;66069;51.164;-114.452;2022-12-29T04:20:09;86700.47;;;15.78;42.00
65019;BME280;66069;51.164;-114.452;2022-12-29T04:23:04;86694.78;;;15.80;42.74
65019;BME280;66069;51.164;-114.452;2022-12-29T04:25:31;86690.97;;;15.81;42.59
65019;BME280;66069;51.164;-114.452;2022-12-29T04:27:58;86691.03;;;15.77;42.75
65019;BME280;66069;51.164;-114.452;2022-12-29T04:30:25;86701.53;;;15.81;42.71
65019;BME280;66069;51.164;-114.452;2022-12-29T04:32:52;86700.72;;;15.84;42.58
65019;BME280;66069;51.164;-114.452;2022-12-29T04:35:18;86700.59;;;15.87;42.46
65019;BME280;66069;51.164;-114.452;2022-12-29T04:37:44;86694.88;;;15.89;42.88
65019;BME280;66069;51.164;-114.452;2022-12-29T04:40:11;86698.63;;;15.92;43.23
65019;BME280;66069;51.164;-114.452;2022-12-29T04:42:38;86697.25;;;16.00;44.20
65019;BME280;66069;51.164;-114.452;2022-12-29T04:45:04;86698.25;;;16.19;44.83
65019;BME280;66069;51.164;-114.452;2022-12-29T04:47:31;86693.28;;;16.33;45.90
65019;BME280;66069;51.164;-114.452;2022-12-29T04:49:57;86692.34;;;16.40;45.99
65019;BME280;66069;51.164;-114.452;2022-12-29T04:52:24;86680.25;;;16.39;45.66
65019;BME280;66069;51.164;-114.452;2022-12-29T04:54:50;86667.78;;;16.27;45.71
65019;BME280;66069;51.164;-114.452;2022-12-29T04:57:16;86686.63;;;16.41;45.53
65019;BME280;66069;51.164;-114.452;2022-12-29T04:59:42;86698.91;;;16.48;45.49
65019;BME280;66069;51.164;-114.452;2022-12-29T05:02:09;86706.72;;;16.52;45.30
65019;BME280;66069;51.164;-114.452;2022-12-29T05:04:35;86693.41;;;16.42;45.12
65019;BME280;66069;51.164;-114.452;2022-12-29T05:07:02;86699.56;;;16.52;45.07
65019;BME280;66069;51.164;-114.452;2022-12-29T05:09:28;86702.94;;;16.53;45.00
65019;BME280;66069;51.164;-114.452;2022-12-29T05:11:55;86693.72;;;16.45;44.99
65019;BME280;66069;51.164;-114.452;2022-12-29T05:14:21;86703.69;;;16.53;44.74
65019;BME280;66069;51.164;-114.452;2022-12-29T05:16:48;86710.13;;;16.52;44.85
65019;BME280;66069;51.164;-114.452;2022-12-29T05:19:14;86709.81;;;16.50;44.86
65019;BME280;66069;51.164;-114.452;2022-12-29T05:21:40;86707.81;;;16.54;44.75
65019;BME280;66069;51.164;-114.452;2022-12-29T05:24:07;86706.63;;;16.55;44.51
65019;BME280;66069;51.164;-114.452;2022-12-29T05:26:33;86710.44;;;16.54;44.30
65019;BME280;66069;51.164;-114.452;2022-12-29T05:29:00;86708.63;;;16.51;44.47
65019;BME280;66069;51.164;-114.452;2022-12-29T05:31:26;86715.00;;;16.54;44.30
65019;BME280;66069;51.164;-114.452;2022-12-29T05:33:53;86725.25;;;16.52;44.44
65019;BME280;66069;51.164;-114.452;2022-12-29T05:36:19;86723.03;;;16.50;44.41
65019;BME280;66069;51.164;-114.452;2022-12-29T05:38:46;86694.34;;;16.36;44.21
65019;BME280;66069;51.164;-114.452;2022-12-29T05:41:12;86727.06;;;16.55;44.29
65019;BME280;66069;51.164;-114.452;2022-12-29T05:43:38;86733.84;;;16.56;44.27
65019;BME280;66069;51.164;-114.452;2022-12-29T05:46:05;86715.63;;;16.45;44.17
65019;BME280;66069;51.164;-114.452;2022-12-29T05:48:31;86734.56;;;16.56;44.19
65019;BME280;66069;51.164;-114.452;2022-12-29T05:50:57;86723.78;;;16.51;44.04
65019;BME280;66069;51.164;-114.452;2022-12-29T05:53:24;86738.38;;;16.55;44.21
65019;BME280;66069;51.164;-114.452;2022-12-29T05:55:50;86726.31;;;16.54;44.10
65019;BME280;66069;51.164;-114.452;2022-12-29T05:58:17;86732.34;;;16.55;44.11
65019;BME280;66069;51.164;-114.452;2022-12-29T06:00:43;86723.78;;;16.51;44.09
65019;BME280;66069;51.164;-114.452;2022-12-29T06:03:10;86737.66;;;16.55;44.06
65019;BME280;66069;51.164;-114.452;2022-12-29T06:05:36;86740.28;;;16.55;43.70
65019;BME280;66069;51.164;-114.452;2022-12-29T06:08:03;86736.16;;;16.54;44.10
65019;BME280;66069;51.164;-114.452;2022-12-29T06:10:29;86729.72;;;16.55;44.17
65019;BME280;66069;51.164;-114.452;2022-12-29T06:12:55;86731.63;;;16.54;44.08
65019;BME280;66069;51.164;-114.452;2022-12-29T06:15:22;86724.09;;;16.53;44.17
65019;BME280;66069;51.164;-114.452;2022-12-29T06:17:48;86734.25;;;16.54;44.28
65019;BME280;66069;51.164;-114.452;2022-12-29T06:20:14;86728.97;;;16.54;44.18
65019;BME280;66069;51.164;-114.452;2022-12-29T06:22:41;86736.91;;;16.54;44.07
65019;BME280;66069;51.164;-114.452;2022-12-29T06:25:07;86729.41;;;16.53;43.91
65019;BME280;66069;51.164;-114.452;2022-12-29T06:27:34;86730.88;;;16.54;44.02
65019;BME280;66069;51.164;-114.452;2022-12-29T06:30:00;86720.50;;;16.47;43.98
65019;BME280;66069;51.164;-114.452;2022-12-29T06:32:27;86713.19;;;16.38;43.82
65019;BME280;66069;51.164;-114.452;2022-12-29T06:34:53;86730.53;;;16.52;43.82
65019;BME280;66069;51.164;-114.452;2022-12-29T06:37:19;86733.19;;;16.52;43.82
65019;BME280;66069;51.164;-114.452;2022-12-29T06:39:46;86728.31;;;16.50;43.83
65019;BME280;66069;51.164;-114.452;2022-12-29T06:42:12;86735.53;;;16.50;43.64
65019;BME280;66069;51.164;-114.452;2022-12-29T06:44:38;86725.69;;;16.50;43.43
65019;BME280;66069;51.164;-114.452;2022-12-29T06:47:04;86730.66;;;16.48;43.54
65019;BME280;66069;51.164;-114.452;2022-12-29T06:49:31;86736.69;;;16.49;43.45
65019;BME280;66069;51.164;-114.452;2022-12-29T06:51:57;86726.09;;;16.49;43.35
65019;BME280;66069;51.164;-114.452;2022-12-29T06:54:25;86713.19;;;16.38;43.53
65019;BME280;66069;51.164;-114.452;2022-12-29T06:56:51;86724.28;;;16.46;43.21
65019;BME280;66069;51.164;-114.452;2022-12-29T06:59:18;86728.84;;;16.45;43.32
65019;BME280;66069;51.164;-114.452;2022-12-29T07:01:44;86730.00;;;16.44;43.16
65019;BME280;66069;51.164;-114.452;2022-12-29T07:04:10;86703.84;;;16.33;43.21
65019;BME280;66069;51.164;-114.452;2022-12-29T07:06:36;86711.59;;;16.40;43.19
65019;BME280;66069;51.164;-114.452;2022-12-29T07:09:03;86723.66;;;16.41;43.09
65019;BME280;66069;51.164;-114.452;2022-12-29T07:11:30;86710.97;;;16.36;43.17
65019;BME280;66069;51.164;-114.452;2022-12-29T07:13:56;86723.75;;;16.38;42.95
65019;BME280;66069;51.164;-114.452;2022-12-29T07:16:22;86718.91;;;16.36;42.98
65019;BME280;66069;51.164;-114.452;2022-12-29T07:18:48;86731.38;;;16.36;43.03
65019;BME280;66069;51.164;-114.452;2022-12-29T07:21:15;86728.00;;;16.35;43.08
65019;BME280;66069;51.164;-114.452;2022-12-29T07:23:42;86728.75;;;16.36;42.88
65019;BME280;66069;51.164;-114.452;2022-12-29T07:26:11;86710.84;;;16.27;43.05
65019;BME280;66069;51.164;-114.452;2022-12-29T07:28:38;86708.31;;;16.24;42.86
65019;BME280;66069;51.164;-114.452;2022-12-29T07:31:05;86714.84;;;16.32;42.88
65019;BME280;66069;51.164;-114.452;2022-12-29T07:33:32;86710.63;;;16.22;42.85
65019;BME280;66069;51.164;-114.452;2022-12-29T07:35:59;86719.84;;;16.30;42.83
65019;BME280;66069;51.164;-114.452;2022-12-29T07:38:25;86729.75;;;16.26;42.68
65019;BME280;66069;51.164;-114.452;2022-12-29T07:40:58;86738.78;;;16.28;42.78
65019;BME280;66069;51.164;-114.452;2022-12-29T07:43:25;86729.38;;;16.27;42.70
65019;BME280;66069;51.164;-114.452;2022-12-29T07:45:51;86733.88;;;16.27;42.67
65019;BME280;66069;51.164;-114.452;2022-12-29T07:48:18;86729.03;;;16.25;42.70
65019;BME280;66069;51.164;-114.452;2022-12-29T07:50:44;86733.59;;;16.25;42.76
65019;BME280;66069;51.164;-114.452;2022-12-29T07:53:10;86729.16;;;16.22;42.64
65019;BME280;66069;51.164;-114.452;2022-12-29T07:55:36;86724.59;;;16.22;42.62
65019;BME280;66069;51.164;-114.452;2022-12-29T07:58:03;86729.88;;;16.22;42.59
65019;BME280;66069;51.164;-114.452;2022-12-29T08:00:29;86739.72;;;16.22;42.32
65019;BME280;66069;51.164;-114.452;2022-12-29T08:02:56;86726.66;;;16.14;42.58
65019;BME280;66069;51.164;-114.452;2022-12-29T08:05:22;86738.63;;;16.19;42.59
65019;BME280;66069;51.164;-114.452;2022-12-29T08:07:48;86729.53;;;16.20;42.43
65019;BME280;66069;51.164;-114.452;2022-12-29T08:10:15;86718.53;;;16.09;42.69
65019;BME280;66069;51.164;-114.452;2022-12-29T08:12:44;86713.34;;;16.05;42.70
65019;BME280;66069;51.164;-114.452;2022-12-29T08:15:11;86725.09;;;16.17;42.44
65019;BME280;66069;51.164;-114.452;2022-12-29T08:17:38;86723.63;;;16.16;42.51
65019;BME280;66069;51.164;-114.452;2022-12-29T08:20:04;86704.44;;;15.99;42.53
65019;BME280;66069;51.164;-114.452;2022-12-29T08:22:31;86722.31;;;16.08;42.42
65019;BME280;66069;51.164;-114.452;2022-12-29T08:24:57;86726.78;;;16.11;42.66
65019;BME280;66069;51.164;-114.452;2022-12-29T08:27:24;86723.72;;;16.12;42.50
65019;BME280;66069;51.164;-114.452;2022-12-29T08:29:51;86717.97;;;16.01;42.62
65019;BME280;66069;51.164;-114.452;2022-12-29T08:32:18;86736.63;;;16.10;42.32
65019;BME280;66069;51.164;-114.452;2022-12-29T08:34:44;86731.00;;;16.08;42.52
65019;BME280;66069;51.164;-114.452;2022-12-29T08:37:10;86727.59;;;16.08;42.49
65019;BME280;66069;51.164;-114.452;2022-12-29T08:39:37;86730.69;;;16.06;42.63
65019;BME280;66069;51.164;-114.452;2022-12-29T08:42:03;86737.88;;;16.06;42.57
65019;BME280;66069;51.164;-114.452;2022-12-29T08:44:29;86733.75;;;16.05;42.28
65019;BME280;66069;51.164;-114.452;2022-12-29T08:46:56;86729.81;;;15.97;42.44
65019;BME280;66069;51.164;-114.452;2022-12-29T08:49:22;86719.03;;;15.91;42.46
65019;BME280;66069;51.164;-114.452;2022-12-29T08:51:48;86735.31;;;16.02;42.29
65019;BME280;66069;51.164;-114.452;2022-12-29T08:54:15;86726.22;;;15.91;42.24
65019;BME280;66069;51.164;-114.452;2022-12-29T08:56:41;86743.66;;;16.01;42.39
65019;BME280;66069;51.164;-114.452;2022-12-29T08:59:07;86733.94;;;15.98;42.40
65019;BME280;66069;51.164;-114.452;2022-12-29T09:01:33;86729.81;;;15.97;42.38
65019;BME280;66069;51.164;-114.452;2022-12-29T09:04:04;86741.88;;;15.98;42.41
65019;BME280;66069;51.164;-114.452;2022-12-29T09:06:31;86740.78;;;15.95;42.48
65019;BME280;66069;51.164;-114.452;2022-12-29T09:08:57;86743.44;;;15.95;42.33
65019;BME280;66069;51.164;-114.452;2022-12-29T09:11:24;86743.44;;;15.95;42.44
65019;BME280;66069;51.164;-114.452;2022-12-29T09:13:52;86734.78;;;15.95;42.49
65019;BME280;66069;51.164;-114.452;2022-12-29T09:16:21;86732.56;;;15.93;42.24
65019;BME280;66069;51.164;-114.452;2022-12-29T09:18:47;86732.97;;;15.92;42.22
65019;BME280;66069;51.164;-114.452;2022-12-29T09:21:14;86734.47;;;15.93;42.30
65019;BME280;66069;51.164;-114.452;2022-12-29T09:23:40;86739.44;;;15.91;42.20
65019;BME280;66069;51.164;-114.452;2022-12-29T09:26:08;86737.91;;;15.89;42.20
65019;BME280;66069;51.164;-114.452;2022-12-29T09:28:34;86736.88;;;15.87;42.15
65019;BME280;66069;51.164;-114.452;2022-12-29T09:31:01;86737.19;;;15.89;42.09
65019;BME280;66069;51.164;-114.452;2022-12-29T09:33:27;86743.41;;;15.82;42.23
65019;BME280;66069;51.164;-114.452;2022-12-29T09:35:56;86739.50;;;15.87;42.04
65019;BME280;66069;51.164;-114.452;2022-12-29T09:38:24;86751.25;;;15.86;42.29
65019;BME280;66069;51.164;-114.452;2022-12-29T09:40:56;86740.44;;;15.80;42.37
65019;BME280;66069;51.164;-114.452;2022-12-29T09:43:56;86743.75;;;15.84;42.28
65019;BME280;66069;51.164;-114.452;2022-12-29T09:46:28;86743.41;;;15.82;42.31
65019;BME280;66069;51.164;-114.452;2022-12-29T09:49:19;86723.13;;;15.63;42.06
65019;BME280;66069;51.164;-114.452;2022-12-29T09:51:55;86752.91;;;15.80;42.17
65019;BME280;66069;51.164;-114.452;2022-12-29T09:54:35;86749.53;;;15.79;42.08
65019;BME280;66069;51.164;-114.452;2022-12-29T09:57:09;86738.50;;;15.68;42.22
65019;BME280;66069;51.164;-114.452;2022-12-29T09:59:42;86739.97;;;15.69;42.36
65019;BME280;66069;51.164;-114.452;2022-12-29T10:04:57;86757.97;;;15.74;42.36
65019;BME280;66069;51.164;-114.452;2022-12-29T10:10:33;86755.31;;;15.74;41.99
65019;BME280;66069;51.164;-114.452;2022-12-29T10:16:05;86770.84;;;15.72;42.23
65019;BME280;66069;51.164;-114.452;2022-12-29T10:21:42;86769.78;;;15.70;42.11
65019;BME280;66069;51.164;-114.452;2022-12-29T10:24:13;86755.75;;;15.56;42.14
65019;BME280;66069;51.164;-114.452;2022-12-29T10:26:41;86749.78;;;15.52;42.17
65019;BME280;66069;51.164;-114.452;2022-12-29T10:29:36;86771.78;;;15.66;42.21
65019;BME280;66069;51.164;-114.452;2022-12-29T10:34:47;86763.94;;;15.62;42.18
65019;BME280;66069;51.164;-114.452;2022-12-29T10:37:40;86757.81;;;15.49;42.20
65019;BME280;66069;51.164;-114.452;2022-12-29T10:40:21;86777.88;;;15.63;42.16
65019;BME280;66069;51.164;-114.452;2022-12-29T10:42:54;86767.78;;;15.57;42.33
65019;BME280;66069;51.164;-114.452;2022-12-29T10:45:23;86775.72;;;15.57;41.95
65019;BME280;66069;51.164;-114.452;2022-12-29T10:51:03;86773.06;;;15.57;42.09
65019;BME280;66069;51.164;-114.452;2022-12-29T10:53:51;86771.69;;;15.53;42.26
65019;BME280;66069;51.164;-114.452;2022-12-29T10:56:35;86769.44;;;15.51;42.12
65019;BME280;66069;51.164;-114.452;2022-12-29T10:59:12;86777.28;;;15.55;42.05
65019;BME280;66069;51.164;-114.452;2022-12-29T11:01:56;86789.34;;;15.56;42.09
65019;BME280;66069;51.164;-114.452;2022-12-29T11:04:51;86790.50;;;15.55;42.38
65019;BME280;66069;51.164;-114.452;2022-12-29T11:07:20;86781.84;;;15.54;42.12
65019;BME280;66069;51.164;-114.452;2022-12-29T11:09:47;86786.78;;;15.52;42.19
65019;BME280;66069;51.164;-114.452;2022-12-29T11:15:02;86788.69;;;15.52;41.90
65019;BME280;66069;51.164;-114.452;2022-12-29T11:17:28;86776.38;;;15.45;42.12
65019;BME280;66069;51.164;-114.452;2022-12-29T11:19:55;86780.00;;;15.51;42.23
65019;BME280;66069;51.164;-114.452;2022-12-29T11:24:51;86778.72;;;15.43;42.26
65019;BME280;66069;51.164;-114.452;2022-12-29T11:27:23;86778.22;;;15.48;42.29
65019;BME280;66069;51.164;-114.452;2022-12-29T11:29:51;86779.38;;;15.47;42.16
65019;BME280;66069;51.164;-114.452;2022-12-29T11:32:23;86772.59;;;15.46;42.09
65019;BME280;66069;51.164;-114.452;2022-12-29T11:34:50;86776.38;;;15.45;42.19
65019;BME280;66069;51.164;-114.452;2022-12-29T11:37:19;86784.31;;;15.45;42.23
65019;BME280;66069;51.164;-114.452;2022-12-29T11:39:55;86780.59;;;15.43;42.08
65019;BME280;66069;51.164;-114.452;2022-12-29T11:42:38;86779.88;;;15.42;42.02
65019;BME280;66069;51.164;-114.452;2022-12-29T11:45:26;86786.31;;;15.41;42.15
65019;BME280;66069;51.164;-114.452;2022-12-29T11:47:58;86788.22;;;15.41;42.05
65019;BME280;66069;51.164;-114.452;2022-12-29T11:50:32;86765.19;;;15.25;42.14
65019;BME280;66069;51.164;-114.452;2022-12-29T11:53:03;86784.47;;;15.38;41.98
65019;BME280;66069;51.164;-114.452;2022-12-29T11:55:31;86768.81;;;15.31;42.14
65019;BME280;66069;51.164;-114.452;2022-12-29T11:58:00;86784.91;;;15.37;42.10
65019;BME280;66069;51.164;-114.452;2022-12-29T12:00:31;86783.81;;;15.34;42.29
65019;BME280;66069;51.164;-114.452;2022-12-29T12:08:19;86776.16;;;15.23;41.95
65019;BME280;66069;51.164;-114.452;2022-12-29T12:10:53;86793.31;;;15.31;41.98
65019;BME280;66069;51.164;-114.452;2022-12-29T12:13:37;86805.78;;;15.31;42.34
65019;BME280;66069;51.164;-114.452;2022-12-29T12:16:21;86810.31;;;15.30;42.24
65019;BME280;66069;51.164;-114.452;2022-12-29T12:19:04;86784.59;;;15.18;42.28
65019;BME280;66069;51.164;-114.452;2022-12-29T12:21:40;86805.47;;;15.29;42.15
65019;BME280;66069;51.164;-114.452;2022-12-29T12:26:59;86793.25;;;15.19;42.05
65019;BME280;66069;51.164;-114.452;2022-12-29T12:29:38;86799.84;;;15.27;42.04
65019;BME280;66069;51.164;-114.452;2022-12-29T12:32:11;86800.25;;;15.25;42.14
65019;BME280;66069;51.164;-114.452;2022-12-29T12:34:42;86792.75;;;15.24;42.13
65019;BME280;66069;51.164;-114.452;2022-12-29T12:40:03;86800.34;;;15.22;41.80
65019;BME280;66069;51.164;-114.452;2022-12-29T12:42:50;86799.59;;;15.21;41.88
65019;BME280;66069;51.164;-114.452;2022-12-29T12:54:12;86776.91;;;15.07;42.37
65019;BME280;66069;51.164;-114.452;2022-12-29T13:05:20;86806.19;;;15.46;43.00
65019;BME280;66069;51.164;-114.452;2022-12-29T13:10:47;86806.25;;;15.58;43.22
65019;BME280;66069;51.164;-114.452;2022-12-29T13:16:28;86809.75;;;15.72;43.48
65019;BME280;66069;51.164;-114.452;2022-12-29T13:19:03;86807.31;;;15.77;43.27
65019;BME280;66069;51.164;-114.452;2022-12-29T13:27:14;86798.41;;;15.87;43.90
65019;BME280;66069;51.164;-114.452;2022-12-29T13:30:04;86819.41;;;16.07;43.88
65019;BME280;66069;51.164;-114.452;2022-12-29T13:32:57;86823.38;;;16.15;44.13
65019;BME280;66069;51.164;-114.452;2022-12-29T13:35:42;86825.16;;;16.19;44.02
65019;BME280;66069;51.164;-114.452;2022-12-29T13:38:11;86828.28;;;16.30;44.19
65019;BME280;66069;51.164;-114.452;2022-12-29T13:40:43;86822.13;;;16.33;44.71
65019;BME280;66069;51.164;-114.452;2022-12-29T13:43:13;86815.09;;;16.42;44.42
65019;BME280;66069;51.164;-114.452;2022-12-29T13:45:41;86806.72;;;16.44;44.36
65019;BME280;66069;51.164;-114.452;2022-12-29T13:48:19;86816.16;;;16.58;44.44
65019;BME280;66069;51.164;-114.452;2022-12-29T13:50:54;86824.34;;;16.63;44.58
65019;BME280;66069;51.164;-114.452;2022-12-29T13:53:34;86826.81;;;16.71;44.64
65019;BME280;66069;51.164;-114.452;2022-12-29T13:56:45;86810.19;;;16.70;44.69
65019;BME280;66069;51.164;-114.452;2022-12-29T13:59:35;86819.53;;;16.87;44.78
65019;BME280;66069;51.164;-114.452;2022-12-29T14:07:45;86821.16;;;17.10;44.87
65019;BME280;66069;51.164;-114.452;2022-12-29T14:13:06;86819.56;;;17.26;44.50
65019;BME280;66069;51.164;-114.452;2022-12-29T14:15:43;86833.88;;;17.28;44.35
65019;BME280;66069;51.164;-114.452;2022-12-29T14:18:19;86845.41;;;17.34;44.47
65019;BME280;66069;51.164;-114.452;2022-12-29T14:20:53;86841.06;;;17.40;44.47
65019;BME280;66069;51.164;-114.452;2022-12-29T14:23:29;86823.16;;;17.44;44.47
65019;BME280;66069;51.164;-114.452;2022-12-29T14:28:38;86822.38;;;17.57;44.21
65019;BME280;66069;51.164;-114.452;2022-12-29T14:36:42;86807.13;;;17.61;44.31